Time;durP1;ratioP1;P1;durP2;ratioP2;P2;SDS_P1;SDS_P2;PMS_P1;PMS_P2;Temp;Humidity;BMP_temperature;BMP_pressure;BME280_temperature;BME280_humidity;BME280_pressure;Samples;Min_cycle;Max_cycle;Signal;HPM_P1;HPM_P2
2022/09/14 00:01:50;;;;;;;6.83;4.80;;;;;;;13.75;100.00;98816.16;4208679;28;20230;-64
2022/09/14 00:04:18;;;;;;;6.27;4.50;;;;;;;13.71;100.00;98825.59;4193759;28;20236;-64
2022/09/14 00:06:46;;;;;;;7.40;5.40;;;;;;;13.75;100.00;98832.19;4191071;28;23213;-63
2022/09/14 00:09:20;;;;;;;6.33;5.07;;;;;;;13.82;100.00;98838.34;4203038;28;20232;-65
2022/09/14 00:11:47;;;;;;;8.70;5.27;;;;;;;13.63;100.00;98834.63;4201791;28;20247;-65
2022/09/14 00:14:14;;;;;;;8.17;5.47;;;;;;;13.51;100.00;98831.75;4194649;28;20309;-65
2022/09/14 00:16:41;;;;;;;10.07;6.00;;;;;;;13.49;100.00;98825.78;4202009;28;21107;-62
2022/09/14 00:19:19;;;;;;;8.30;6.13;;;;;;;13.49;100.00;98833.81;4200063;28;20281;-64
2022/09/14 00:21:49;;;;;;;9.77;6.40;;;;;;;13.35;100.00;98832.13;4204672;28;20446;-63
2022/09/14 00:24:16;;;;;;;10.67;7.23;;;;;;;13.29;100.00;98823.06;4199732;28;20229;-64
2022/09/14 00:26:42;;;;;;;10.40;7.47;;;;;;;13.16;100.00;98822.16;4199548;28;22451;-65
2022/09/14 00:29:10;;;;;;;10.10;6.93;;;;;;;13.18;100.00;98817.44;4206447;28;20723;-62
2022/09/14 00:31:37;;;;;;;10.03;7.30;;;;;;;13.11;100.00;98809.44;4194713;28;21273;-65
2022/09/14 00:34:05;;;;;;;13.70;8.00;;;;;;;13.05;100.00;98810.25;4192405;28;20243;-66
2022/09/14 00:36:37;;;;;;;12.47;7.27;;;;;;;12.97;100.00;98813.94;4201537;28;20359;-66
2022/09/14 00:39:04;;;;;;;10.50;7.53;;;;;;;12.91;100.00;98820.06;4193154;28;20285;-64
2022/09/14 00:41:33;;;;;;;13.13;8.17;;;;;;;12.78;100.00;98820.84;4197162;28;20234;-63
2022/09/14 00:44:06;;;;;;;10.67;7.83;;;;;;;12.74;100.00;98813.44;4207657;28;21012;-66
2022/09/14 00:46:41;;;;;;;11.73;7.83;;;;;;;12.71;100.00;98813.81;4209513;28;20296;-67
2022/09/14 00:49:35;;;;;;;11.00;8.00;;;;;;;12.57;100.00;98819.09;4191913;28;20242;-65
2022/09/14 00:52:07;;;;;;;13.70;7.67;;;;;;;12.57;100.00;98818.25;4215734;28;20312;-63
2022/09/14 00:54:39;;;;;;;12.53;8.30;;;;;;;12.46;100.00;98817.78;4206919;28;20236;-63
2022/09/14 00:57:05;;;;;;;15.60;7.87;;;;;;;12.44;100.00;98819.03;4195058;28;20250;-64
2022/09/14 00:59:37;;;;;;;13.77;8.97;;;;;;;12.41;100.00;98824.75;4203119;28;20325;-65
2022/09/14 01:02:04;;;;;;;18.03;9.57;;;;;;;12.40;100.00;98829.25;4191217;28;22709;-64
2022/09/14 01:04:31;;;;;;;16.07;9.90;;;;;;;12.42;100.00;98837.06;4196268;28;20749;-65
2022/09/14 01:07:37;;;;;;;15.30;9.43;;;;;;;12.35;100.00;98830.88;4179333;28;20319;-63
2022/09/14 01:10:18;;;;;;;13.63;8.30;;;;;;;12.42;100.00;98826.41;4188458;28;24148;-66
2022/09/14 01:13:06;;;;;;;13.23;8.93;;;;;;;12.46;100.00;98822.31;4211126;28;20245;-63
2022/09/14 01:15:44;;;;;;;13.97;9.03;;;;;;;12.46;100.00;98817.78;4207981;28;20229;-62
2022/09/14 01:18:32;;;;;;;17.10;9.63;;;;;;;12.50;100.00;98820.88;4199413;28;21236;-62
2022/09/14 01:21:08;;;;;;;15.30;9.00;;;;;;;12.53;100.00;98819.69;4197559;28;20252;-62
2022/09/14 01:24:00;;;;;;;15.73;8.70;;;;;;;12.48;100.00;98814.94;4202286;28;20243;-65
2022/09/14 01:26:45;;;;;;;14.73;9.57;;;;;;;12.49;100.00;98816.56;4193055;28;20307;-63
2022/09/14 01:29:25;;;;;;;17.10;10.37;;;;;;;12.52;100.00;98815.34;4196453;28;20230;-64
2022/09/14 01:32:05;;;;;;;17.40;10.37;;;;;;;12.52;100.00;98810.84;4194209;28;20312;-62
2022/09/14 01:34:41;;;;;;;13.57;9.17;;;;;;;12.54;100.00;98803.47;4198524;28;20247;-63
2022/09/14 01:37:13;;;;;;;16.57;9.87;;;;;;;12.59;100.00;98803.69;4191391;28;20702;-63
2022/09/14 01:39:42;;;;;;;16.37;10.23;;;;;;;12.66;100.00;98812.53;4191606;28;20228;-64
2022/09/14 01:42:11;;;;;;;23.43;11.47;;;;;;;12.67;100.00;98808.06;4208278;28;21851;-64
2022/09/14 01:44:41;;;;;;;18.93;11.47;;;;;;;12.71;100.00;98803.13;4188327;28;20241;-63
2022/09/14 01:47:25;;;;;;;19.07;10.77;;;;;;;12.72;100.00;98799.44;4187768;28;22168;-62
2022/09/14 01:49:56;;;;;;;18.77;11.23;;;;;;;12.75;100.00;98793.72;4198337;28;20371;-63
2022/09/14 01:52:26;;;;;;;18.17;12.00;;;;;;;12.81;100.00;98796.41;4196889;28;20259;-64
2022/09/14 01:55:00;;;;;;;20.43;13.00;;;;;;;12.79;100.00;98797.63;4193553;28;20235;-63
2022/09/14 01:57:31;;;;;;;28.20;13.63;;;;;;;12.83;100.00;98801.53;4192494;28;21577;-64
2022/09/14 02:00:01;;;;;;;22.00;13.47;;;;;;;12.92;100.00;98795.00;4193574;28;20691;-63
2022/09/14 02:02:33;;;;;;;25.20;15.40;;;;;;;12.94;100.00;98790.28;4193318;28;20242;-63
2022/09/14 02:05:30;;;;;;;27.40;15.57;;;;;;;12.97;100.00;98787.22;4208678;28;20253;-66
2022/09/14 02:07:57;;;;;;;51.13;19.03;;;;;;;12.91;100.00;98782.69;4207903;28;20233;-64
2022/09/14 02:10:24;;;;;;;41.97;21.43;;;;;;;13.04;100.00;98787.22;4201776;28;22339;-64
2022/09/14 02:12:52;;;;;;;49.87;22.23;;;;;;;13.02;100.00;98784.75;4196394;28;20236;-64
2022/09/14 02:15:19;;;;;;;49.30;23.63;;;;;;;13.00;100.00;98786.81;4189244;28;20325;-66
2022/09/14 02:17:46;;;;;;;48.37;24.20;;;;;;;13.05;100.00;98773.66;4188528;28;21164;-64
2022/09/14 02:20:22;;;;;;;55.43;26.90;;;;;;;13.09;100.00;98774.91;4196750;28;20246;-63
2022/09/14 02:22:49;;;;;;;54.57;27.17;;;;;;;13.14;100.00;98781.50;4205473;28;20318;-64
2022/09/14 02:25:16;;;;;;;64.30;28.87;;;;;;;13.07;100.00;98776.97;4198709;28;20634;-65
2022/09/14 02:27:43;;;;;;;63.43;27.83;;;;;;;13.15;100.00;98777.81;4165492;28;20290;-65
2022/09/14 02:30:10;;;;;;;52.47;26.37;;;;;;;13.19;100.00;98781.72;4201978;28;21158;-65
2022/09/14 02:33:02;;;;;;;71.93;30.30;;;;;;;13.10;100.00;98787.25;4195344;28;20360;-66
2022/09/14 02:35:35;;;;;;;67.70;30.77;;;;;;;13.17;100.00;98781.09;4189246;28;20249;-64
2022/09/14 02:38:18;;;;;;;67.13;31.53;;;;;;;13.21;100.00;98787.69;4204434;28;20232;-66
2022/09/14 02:40:54;;;;;;;77.77;35.53;;;;;;;13.18;100.00;98788.06;4209895;28;20262;-63
2022/09/14 02:43:41;;;;;;;84.17;37.53;;;;;;;13.13;100.00;98785.19;4208943;28;20243;-64
2022/09/14 02:46:33;;;;;;;98.30;40.60;;;;;;;13.14;100.00;98782.34;4208811;28;20236;-64
2022/09/14 02:49:06;;;;;;;90.53;39.10;;;;;;;13.19;100.00;98779.88;4210058;28;22273;-63
2022/09/14 02:51:37;;;;;;;95.47;41.47;;;;;;;13.23;100.00;98782.97;4181698;28;20298;-63
2022/09/14 02:54:25;;;;;;;110.47;44.13;;;;;;;13.25;100.00;98780.88;4203359;28;20647;-63
2022/09/14 02:56:51;;;;;;;107.00;42.60;;;;;;;13.22;100.00;98787.47;4205884;28;20243;-64
2022/09/14 02:59:18;;;;;;;107.33;44.47;;;;;;;13.19;100.00;98785.22;4196015;28;20308;-62
2022/09/14 03:01:44;;;;;;;109.60;43.90;;;;;;;13.32;100.00;98789.78;4199631;28;20370;-66
2022/09/14 03:04:11;;;;;;;107.13;44.37;;;;;;;13.26;100.00;98780.69;4202345;28;20288;-62
2022/09/14 03:06:37;;;;;;;124.17;48.83;;;;;;;13.25;100.00;98783.56;4202546;28;21165;-64
2022/09/14 03:09:04;;;;;;;109.13;47.20;;;;;;;13.29;100.00;98784.84;4185839;28;22526;-65
2022/09/14 03:11:31;;;;;;;127.50;48.23;;;;;;;13.24;100.00;98796.09;4200245;28;20243;-64
2022/09/14 03:13:57;;;;;;;128.30;49.37;;;;;;;13.25;100.00;98794.25;4199520;28;20248;-63
2022/09/14 03:16:24;;;;;;;141.17;52.57;;;;;;;13.24;100.00;98788.09;4194566;28;20234;-64
2022/09/14 03:18:50;;;;;;;127.20;49.17;;;;;;;13.32;100.00;98784.44;4196103;28;20240;-62
2022/09/14 03:21:18;;;;;;;141.33;51.93;;;;;;;13.35;100.00;98785.91;4202970;28;20318;-64
2022/09/14 03:23:50;;;;;;;140.17;51.80;;;;;;;13.23;100.00;98786.47;4199298;28;20240;-65
2022/09/14 03:26:19;;;;;;;152.53;52.23;;;;;;;13.29;100.00;98779.50;4200238;28;20248;-64
2022/09/14 03:28:50;;;;;;;133.03;52.53;;;;;;;13.20;100.00;98780.69;4191945;28;20248;-64
2022/09/14 03:31:16;;;;;;;138.87;52.10;;;;;;;13.15;100.00;98778.63;4192848;28;20563;-64
2022/09/14 03:33:43;;;;;;;102.93;48.10;;;;;;;13.24;100.00;98779.25;4197628;28;20236;-66
2022/09/14 03:36:11;;;;;;;139.30;51.67;;;;;;;13.20;100.00;98775.34;4204791;28;20554;-63
2022/09/14 03:38:39;;;;;;;121.73;48.67;;;;;;;13.16;100.00;98766.09;4198855;28;20239;-63
2022/09/14 03:41:09;;;;;;;128.53;51.03;;;;;;;13.15;100.00;98759.09;4182041;28;20494;-64
2022/09/14 03:43:35;;;;;;;122.33;48.63;;;;;;;13.11;100.00;98750.69;4192219;28;20233;-63
2022/09/14 03:46:06;;;;;;;120.73;48.07;;;;;;;13.06;100.00;98758.47;4192399;28;20237;-64
2022/09/14 03:48:33;;;;;;;131.90;49.67;;;;;;;13.03;100.00;98762.38;4191222;28;20251;-63
2022/09/14 03:51:00;;;;;;;110.80;47.63;;;;;;;13.07;100.00;98768.97;4189278;28;20233;-62
2022/09/14 03:53:27;;;;;;;119.53;48.43;;;;;;;13.00;100.00;98770.78;4194273;28;20243;-63
2022/09/14 03:55:53;;;;;;;132.83;49.90;;;;;;;13.02;100.00;98768.75;4205847;28;21534;-66
2022/09/14 03:58:20;;;;;;;121.67;46.90;;;;;;;12.99;100.00;98771.78;4191031;28;20241;-63
2022/09/14 04:00:46;;;;;;;117.20;48.90;;;;;;;12.97;100.00;98765.88;4189560;28;21080;-64
2022/09/14 04:03:13;;;;;;;127.50;50.43;;;;;;;12.92;100.00;98765.63;4195875;28;20236;-66
2022/09/14 04:05:40;;;;;;;107.57;48.47;;;;;;;13.01;100.00;98767.09;4190234;28;20571;-65
2022/09/14 04:08:06;;;;;;;123.07;48.07;;;;;;;12.99;100.00;98774.47;4194378;28;20245;-66
2022/09/14 04:10:33;;;;;;;119.40;48.57;;;;;;;13.02;100.00;98767.94;4203683;28;20413;-65
2022/09/14 04:13:00;;;;;;;114.67;48.37;;;;;;;13.01;100.00;98766.25;4201660;28;20245;-67
2022/09/14 04:15:27;;;;;;;111.30;47.93;;;;;;;13.01;100.00;98760.94;4206547;28;20305;-64
2022/09/14 04:17:54;;;;;;;132.57;51.63;;;;;;;12.98;100.00;98769.34;4205276;28;20231;-65
2022/09/14 04:20:20;;;;;;;123.33;50.93;;;;;;;13.03;100.00;98759.69;4225420;28;20929;-66
2022/09/14 04:22:47;;;;;;;130.23;52.80;;;;;;;13.00;100.00;98759.28;4198540;28;21139;-63
2022/09/14 04:25:14;;;;;;;131.63;51.20;;;;;;;13.05;100.00;98749.63;4268535;28;20242;-65
2022/09/14 04:27:40;;;;;;;114.27;49.57;;;;;;;12.99;100.00;98753.09;4279021;28;20229;-63
2022/09/14 04:30:07;;;;;;;115.37;48.43;;;;;;;13.08;100.00;98757.22;4267603;28;21142;-67
2022/09/14 04:32:34;;;;;;;101.30;47.00;;;;;;;13.12;100.00;98759.53;4223608;28;20242;-65
2022/09/14 04:35:01;;;;;;;104.20;45.87;;;;;;;13.10;100.00;98757.84;4213637;28;20236;-69
2022/09/14 04:37:31;;;;;;;102.23;45.57;;;;;;;13.16;100.00;98758.91;4203404;28;20506;-64
2022/09/14 04:39:59;;;;;;;101.00;42.73;;;;;;;13.20;100.00;98754.78;4191565;28;20247;-65
2022/09/14 04:42:25;;;;;;;97.63;42.70;;;;;;;13.26;100.00;98753.16;4207245;28;21152;-67
2022/09/14 04:44:52;;;;;;;110.63;42.33;;;;;;;13.31;100.00;98758.75;4197061;28;20253;-65
2022/09/14 04:47:18;;;;;;;88.90;41.13;;;;;;;13.25;100.00;98763.03;4183463;28;20476;-70
2022/09/14 04:49:45;;;;;;;84.63;39.87;;;;;;;13.27;100.00;98754.81;4206990;28;25351;-65
2022/09/14 04:52:11;;;;;;;81.47;38.30;;;;;;;13.35;100.00;98754.66;4199575;28;20321;-66
2022/09/14 04:54:38;;;;;;;82.13;39.77;;;;;;;13.38;100.00;98751.56;4191929;28;22123;-68
2022/09/14 04:57:05;;;;;;;84.23;38.83;;;;;;;13.39;100.00;98755.91;4200972;28;20646;-65
2022/09/14 04:59:31;;;;;;;83.37;39.17;;;;;;;13.45;100.00;98759.59;4204331;28;20648;-65
2022/09/14 05:01:58;;;;;;;75.33;36.03;;;;;;;13.52;100.00;98763.91;4197944;28;20242;-67
2022/09/14 05:04:24;;;;;;;74.97;36.40;;;;;;;13.58;100.00;98761.44;4198767;28;21325;-65
2022/09/14 05:06:51;;;;;;;68.33;35.93;;;;;;;13.64;100.00;98771.31;4210320;28;20243;-67
2022/09/14 05:09:17;;;;;;;75.80;35.63;;;;;;;13.62;100.00;98766.16;4202732;28;21729;-73
2022/09/14 05:11:44;;;;;;;67.40;33.73;;;;;;;13.58;100.00;98764.09;4204726;28;21949;-65
2022/09/14 05:14:12;;;;;;;69.37;35.30;;;;;;;13.64;100.00;98768.63;4195063;28;21745;-66
2022/09/14 05:16:39;;;;;;;66.13;33.73;;;;;;;13.66;100.00;98763.91;4204001;28;22467;-65
2022/09/14 05:19:09;;;;;;;62.90;33.67;;;;;;;13.67;100.00;98773.56;4199601;28;20245;-65
2022/09/14 05:21:36;;;;;;;70.17;34.57;;;;;;;13.69;100.00;98766.16;4206047;28;20238;-67
2022/09/14 05:24:06;;;;;;;63.70;32.57;;;;;;;13.82;100.00;98763.50;4192120;28;21665;-65
2022/09/14 05:26:33;;;;;;;63.67;34.77;;;;;;;13.90;100.00;98767.78;4200975;28;20251;-71
2022/09/14 05:29:01;;;;;;;61.03;33.53;;;;;;;14.08;100.00;98761.81;4200381;28;20313;-70
2022/09/14 05:31:28;;;;;;;59.40;33.50;;;;;;;14.17;100.00;98763.22;4207541;28;20233;-68
2022/09/14 05:33:55;;;;;;;57.43;30.60;;;;;;;14.08;100.00;98759.94;4212157;28;20246;-70
2022/09/14 05:36:21;;;;;;;65.23;32.43;;;;;;;14.23;100.00;98758.88;4209181;28;21721;-69
2022/09/14 05:38:48;;;;;;;58.03;30.10;;;;;;;14.31;100.00;98759.50;4223039;28;21999;-70
2022/09/14 05:41:15;;;;;;;65.20;32.03;;;;;;;14.23;100.00;98758.88;4194136;28;20249;-69
2022/09/14 05:43:42;;;;;;;59.03;31.30;;;;;;;14.26;100.00;98769.19;4196289;28;20252;-71
2022/09/14 05:46:11;;;;;;;54.30;30.57;;;;;;;14.27;100.00;98768.16;4188503;28;20695;-66
2022/09/14 05:48:38;;;;;;;56.80;31.23;;;;;;;14.26;100.00;98775.34;4197750;28;20232;-71
2022/09/14 05:51:16;;;;;;;52.30;29.70;;;;;;;14.27;100.00;98776.97;4195987;28;20236;-69
2022/09/14 05:53:48;;;;;;;60.03;31.33;;;;;;;14.21;100.00;98763.63;4201002;28;20312;-70
2022/09/14 05:56:15;;;;;;;58.53;32.97;;;;;;;14.18;100.00;98766.72;4195108;28;21008;-68
2022/09/14 05:58:42;;;;;;;71.00;35.47;;;;;;;14.12;100.00;98757.69;4207295;28;20283;-70
2022/09/14 06:01:18;;;;;;;81.23;37.70;;;;;;;14.12;100.00;98763.03;4193382;28;20773;-67
2022/09/14 06:03:46;;;;;;;80.70;38.13;;;;;;;14.11;100.00;98756.84;4204186;28;20291;-68
2022/09/14 06:06:14;;;;;;;83.47;40.80;;;;;;;14.03;100.00;98757.09;4199683;28;20236;-68
2022/09/14 06:08:41;;;;;;;88.97;41.30;;;;;;;13.94;100.00;98759.16;4194070;28;20859;-67
2022/09/14 06:11:10;;;;;;;85.73;40.37;;;;;;;13.94;100.00;98756.47;4213652;28;20713;-68
2022/09/14 06:13:37;;;;;;;86.30;40.87;;;;;;;13.87;100.00;98761.00;4197642;28;20309;-67
2022/09/14 06:16:05;;;;;;;84.67;39.83;;;;;;;13.84;100.00;98764.09;4194947;28;23032;-68
2022/09/14 06:18:33;;;;;;;80.73;39.57;;;;;;;13.82;100.00;98768.03;4202636;28;22991;-68
2022/09/14 06:21:00;;;;;;;83.77;38.97;;;;;;;13.76;100.00;98764.31;4206275;28;21033;-69
2022/09/14 06:23:27;;;;;;;81.10;39.27;;;;;;;13.72;100.00;98765.78;4195501;28;20230;-67
2022/09/14 06:25:55;;;;;;;75.30;39.17;;;;;;;13.73;100.00;98780.75;4196218;28;23403;-66
2022/09/14 06:28:22;;;;;;;79.17;39.37;;;;;;;13.78;100.00;98778.28;4201181;28;21236;-68
2022/09/14 06:30:48;;;;;;;73.43;39.03;;;;;;;13.71;100.00;98772.94;4203749;28;20239;-70
2022/09/14 06:33:16;;;;;;;74.63;38.63;;;;;;;13.76;100.00;98766.97;4194352;28;21454;-70
2022/09/14 06:35:45;;;;;;;77.17;38.17;;;;;;;13.80;100.00;98776.25;4205767;28;20236;-67
2022/09/14 06:38:13;;;;;;;75.93;37.97;;;;;;;13.87;100.00;98777.06;4197377;28;20233;-65
2022/09/14 06:40:52;;;;;;;68.67;37.33;;;;;;;13.91;100.00;98783.63;4192362;28;20257;-63
2022/09/14 06:43:19;;;;;;;64.43;36.53;;;;;;;13.89;100.00;98783.03;4207686;28;20660;-63
2022/09/14 06:45:57;;;;;;;58.20;34.27;;;;;;;13.91;100.00;98791.66;4203640;28;20698;-64
2022/09/14 06:48:24;;;;;;;58.83;33.47;;;;;;;13.89;100.00;98798.25;4193463;28;20237;-66
2022/09/14 06:50:51;;;;;;;59.43;33.20;;;;;;;13.78;100.00;98794.34;4199453;28;20234;-64
2022/09/14 06:53:17;;;;;;;56.80;32.60;;;;;;;13.84;100.00;98790.84;4203318;28;21074;-64
2022/09/14 06:55:44;;;;;;;58.97;31.33;;;;;;;13.76;100.00;98796.38;4194088;28;20546;-66
2022/09/14 06:58:11;;;;;;;54.93;30.90;;;;;;;13.82;100.00;98800.91;4198078;28;20372;-64
2022/09/14 07:00:37;;;;;;;63.37;33.33;;;;;;;13.85;100.00;98799.69;4204002;28;20277;-65
2022/09/14 07:03:04;;;;;;;55.97;32.80;;;;;;;13.87;100.00;98798.44;4199121;28;20343;-64
2022/09/14 07:05:31;;;;;;;59.50;33.43;;;;;;;13.97;100.00;98800.69;4201995;28;20734;-65
2022/09/14 07:07:57;;;;;;;58.03;33.83;;;;;;;14.09;100.00;98806.25;4201202;28;20252;-65
2022/09/14 07:10:27;;;;;;;58.20;33.07;;;;;;;14.31;100.00;98804.16;4200312;28;20995;-65
2022/09/14 07:12:53;;;;;;;52.23;32.20;;;;;;;14.60;100.00;98813.56;4205283;28;20415;-63
2022/09/14 07:15:20;;;;;;;50.27;32.00;;;;;;;15.51;100.00;98815.16;4216492;28;20242;-64
2022/09/14 07:17:47;;;;;;;46.23;27.07;;;;;;;16.57;100.00;98821.47;4216093;28;20420;-66
2022/09/14 07:20:14;;;;;;;37.50;22.87;;;;;;;17.41;100.00;98826.25;4207541;28;20229;-66
2022/09/14 07:22:41;;;;;;;38.50;23.63;;;;;;;16.72;100.00;98829.19;4213959;28;20248;-65
2022/09/14 07:25:08;;;;;;;37.40;21.77;;;;;;;17.34;99.99;98822.81;4212291;28;20397;-66
2022/09/14 07:27:38;;;;;;;29.63;19.40;;;;;;;17.32;99.71;98824.91;4227808;28;21672;-65
2022/09/14 07:30:06;;;;;;;31.67;20.17;;;;;;;17.75;98.13;98823.84;4217176;28;20743;-64
2022/09/14 07:32:32;;;;;;;30.43;18.13;;;;;;;18.62;91.74;98834.81;4208294;28;20255;-64
2022/09/14 07:34:59;;;;;;;26.00;17.37;;;;;;;18.42;89.34;98837.84;4207562;28;20247;-65
2022/09/14 07:37:28;;;;;;;27.27;15.67;;;;;;;18.43;88.73;98836.81;4213602;28;25680;-66
2022/09/14 07:39:56;;;;;;;30.07;16.93;;;;;;;17.96;90.22;98831.44;4217423;28;20245;-64
2022/09/14 07:42:22;;;;;;;28.70;17.43;;;;;;;17.25;95.86;98825.81;4206257;28;21114;-64
2022/09/14 07:44:49;;;;;;;26.00;15.73;;;;;;;17.70;93.68;98824.56;4196852;28;20243;-63
2022/09/14 07:47:16;;;;;;;26.70;15.40;;;;;;;18.22;91.37;98829.34;4222265;28;20339;-64
2022/09/14 07:49:42;;;;;;;21.83;13.53;;;;;;;18.38;87.24;98823.25;4203204;28;25266;-65
2022/09/14 07:52:10;;;;;;;22.20;12.93;;;;;;;18.08;87.35;98824.19;4208613;28;21219;-65
2022/09/14 07:54:37;;;;;;;21.70;11.80;;;;;;;17.69;88.79;98821.03;4219208;28;20606;-64
2022/09/14 07:57:03;;;;;;;20.77;11.80;;;;;;;18.82;82.43;98834.44;4229077;28;21124;-67
2022/09/14 07:59:31;;;;;;;24.87;12.30;;;;;;;18.96;82.92;98829.59;4232828;28;20654;-68
2022/09/14 08:02:07;;;;;;;20.30;11.60;;;;;;;19.59;78.89;98841.28;4203592;28;21709;-68
2022/09/14 08:04:34;;;;;;;21.50;12.30;;;;;;;19.06;81.21;98842.44;4221332;28;21950;-67
2022/09/14 08:07:02;;;;;;;20.97;10.90;;;;;;;18.45;83.84;98832.03;4206994;28;20317;-72
2022/09/14 08:09:28;;;;;;;20.60;11.23;;;;;;;18.04;85.95;98839.16;4208646;28;20395;-66
2022/09/14 08:11:56;;;;;;;21.27;11.33;;;;;;;18.33;83.93;98839.25;4212126;28;20233;-64
2022/09/14 08:14:24;;;;;;;20.87;9.17;;;;;;;20.16;74.30;98851.19;4254971;28;22952;-63
2022/09/14 08:16:51;;;;;;;21.53;8.30;;;;;;;19.93;72.88;98844.06;4217576;28;20535;-66
2022/09/14 08:19:19;;;;;;;19.13;6.93;;;;;;;20.05;70.27;98841.28;4192512;28;23539;-64
2022/09/14 08:21:47;;;;;;;14.13;7.30;;;;;;;19.88;70.54;98841.25;4219896;28;20226;-65
2022/09/14 08:24:16;;;;;;;16.00;7.13;;;;;;;19.92;72.89;98837.00;4244210;28;25082;-43
2022/09/14 08:26:43;;;;;;;14.53;6.90;;;;;;;19.37;72.71;98846.56;4261387;28;20261;-69
2022/09/14 08:29:11;;;;;;;12.87;7.23;;;;;;;19.05;75.68;98851.59;4199014;28;20912;-44
2022/09/14 08:31:38;;;;;;;12.97;7.27;;;;;;;18.20;79.61;98843.03;4220340;28;21189;-46
2022/09/14 08:34:05;;;;;;;20.60;8.63;;;;;;;17.84;81.70;98835.97;4199388;28;20577;-73
2022/09/14 08:36:34;;;;;;;16.07;7.97;;;;;;;18.04;81.33;98835.63;4211556;28;21148;-69
2022/09/14 08:39:01;;;;;;;15.57;7.43;;;;;;;17.88;81.63;98831.75;4224297;28;20239;-68
2022/09/14 08:41:34;;;;;;;14.30;8.00;;;;;;;17.80;83.96;98826.69;4192541;28;20228;-66
2022/09/14 08:44:13;;;;;;;18.90;8.13;;;;;;;17.93;82.47;98826.50;4220803;28;22754;-67
2022/09/14 08:46:57;;;;;;;19.83;8.87;;;;;;;17.56;84.31;98825.81;4202589;28;20237;-70
2022/09/14 08:49:45;;;;;;;17.90;8.30;;;;;;;17.25;86.10;98825.00;4178401;28;20234;-73
2022/09/14 08:52:13;;;;;;;18.70;8.40;;;;;;;17.89;84.20;98815.38;4210630;28;20632;-73
2022/09/14 08:54:39;;;;;;;17.33;7.80;;;;;;;18.33;82.97;98818.56;4266353;28;20286;-70
2022/09/14 08:57:18;;;;;;;16.03;7.70;;;;;;;18.43;79.74;98820.66;4199263;28;20232;-69
2022/09/14 08:59:59;;;;;;;16.77;8.10;;;;;;;18.28;79.72;98818.41;4197248;28;21237;-69
2022/09/14 09:02:35;;;;;;;16.13;8.10;;;;;;;18.35;81.78;98826.38;4204324;28;20954;-71
2022/09/14 09:05:06;;;;;;;14.40;7.40;;;;;;;18.96;78.57;98825.03;4214978;28;20229;-71
2022/09/14 09:07:52;;;;;;;16.60;7.87;;;;;;;19.04;75.68;98825.72;4193994;28;22469;-73
2022/09/14 09:10:19;;;;;;;16.47;9.43;;;;;;;19.06;76.16;98834.34;4219161;28;20288;-53
2022/09/14 09:12:49;;;;;;;16.97;6.40;;;;;;;18.72;76.08;98824.22;4203497;28;23604;-71
2022/09/14 09:15:22;;;;;;;17.30;6.70;;;;;;;18.18;76.37;98818.19;4219234;28;22010;-68
2022/09/14 09:17:52;;;;;;;21.33;7.93;;;;;;;17.94;79.67;98820.06;4217570;28;22282;-68
2022/09/14 09:20:37;;;;;;;13.20;6.67;;;;;;;18.13;79.66;98824.28;4202981;28;23548;-63
2022/09/14 09:23:16;;;;;;;10.17;5.50;;;;;;;18.16;78.04;98814.09;4228072;28;20238;-66
2022/09/14 09:26:04;;;;;;;16.40;7.20;;;;;;;17.96;78.48;98814.44;4216609;28;20384;-67
2022/09/14 09:28:32;;;;;;;16.57;6.33;;;;;;;18.05;79.98;98808.50;4238635;28;20432;-69
2022/09/14 09:31:03;;;;;;;14.87;7.00;;;;;;;18.15;77.72;98813.28;4200023;28;23921;-66
2022/09/14 09:33:31;;;;;;;12.90;6.10;;;;;;;17.82;78.96;98813.88;4212776;28;20240;-68
2022/09/14 09:35:58;;;;;;;15.43;6.60;;;;;;;17.79;79.85;98808.91;4230712;28;21701;-66
2022/09/14 09:38:27;;;;;;;13.83;6.90;;;;;;;17.66;80.54;98794.63;4204427;28;20233;-68
2022/09/14 09:41:06;;;;;;;12.33;6.33;;;;;;;17.78;78.70;98809.97;4203022;28;20252;-70
2022/09/14 09:43:32;;;;;;;13.23;6.60;;;;;;;17.97;78.66;98806.13;4208961;28;20606;-68
2022/09/14 09:46:14;;;;;;;9.87;6.37;;;;;;;17.81;76.52;98814.91;4204934;28;22302;-68
2022/09/14 09:48:43;;;;;;;15.63;6.40;;;;;;;17.69;78.13;98810.28;4198219;28;20239;-66
2022/09/14 09:51:25;;;;;;;13.77;5.93;;;;;;;17.79;79.39;98816.97;4201178;28;20482;-68
2022/09/14 09:53:55;;;;;;;18.10;6.40;;;;;;;17.65;77.91;98817.19;4203348;28;20489;-67
2022/09/14 09:56:30;;;;;;;15.93;6.93;;;;;;;17.84;78.69;98817.13;4189531;28;20380;-67
2022/09/14 09:58:58;;;;;;;11.27;6.00;;;;;;;17.85;78.22;98810.69;4197950;28;20402;-68
2022/09/14 10:01:28;;;;;;;17.50;6.60;;;;;;;17.96;78.33;98826.03;4201814;28;20231;-68
2022/09/14 10:04:07;;;;;;;12.73;6.73;;;;;;;17.77;76.94;98824.44;4219980;28;20832;-66
2022/09/14 10:06:42;;;;;;;16.10;6.87;;;;;;;17.66;78.89;98813.44;4196347;28;20237;-67
2022/09/14 10:09:23;;;;;;;14.30;6.67;;;;;;;17.66;78.99;98809.94;4210205;28;25119;-68
2022/09/14 10:12:00;;;;;;;12.83;5.73;;;;;;;17.59;78.90;98804.66;4186423;28;20232;-68
2022/09/14 10:14:32;;;;;;;18.43;5.97;;;;;;;17.55;79.13;98810.72;4205803;28;20229;-68
2022/09/14 10:17:19;;;;;;;11.50;6.23;;;;;;;17.66;77.34;98818.81;4204274;28;20248;-68
2022/09/14 10:19:53;;;;;;;13.33;5.57;;;;;;;17.80;77.91;98813.25;4205941;28;20237;-70
2022/09/14 10:22:31;;;;;;;14.30;6.13;;;;;;;17.88;77.03;98819.13;4213154;28;20304;-67
2022/09/14 10:25:01;;;;;;;16.83;5.37;;;;;;;17.92;76.27;98824.88;4219286;28;20295;-68
2022/09/14 10:27:35;;;;;;;12.23;5.33;;;;;;;18.36;76.70;98825.34;4208905;28;21127;-68
2022/09/14 10:30:06;;;;;;;10.33;5.53;;;;;;;18.48;75.18;98820.75;4240680;28;21478;-71
2022/09/14 10:32:32;;;;;;;11.90;5.73;;;;;;;18.39;74.84;98816.78;4197831;28;20238;-66
2022/09/14 10:34:59;;;;;;;12.60;5.13;;;;;;;18.35;74.82;98821.00;4215573;28;21801;-66
2022/09/14 10:37:37;;;;;;;12.00;4.10;;;;;;;18.40;72.85;98821.09;4231355;28;20362;-68
2022/09/14 10:40:12;;;;;;;6.63;2.97;;;;;;;18.53;69.60;98826.25;4227439;28;20422;-68
2022/09/14 10:42:51;;;;;;;4.70;2.83;;;;;;;18.76;65.96;98836.22;4196027;28;20335;-66
2022/09/14 10:45:24;;;;;;;7.03;2.77;;;;;;;18.96;66.65;98834.97;4209390;28;20234;-68
2022/09/14 10:48:12;;;;;;;6.13;2.43;;;;;;;19.11;64.84;98824.50;4216335;28;21395;-68
2022/09/14 10:51:04;;;;;;;5.97;2.27;;;;;;;19.06;62.96;98828.97;4206162;28;20234;-69
2022/09/14 10:53:54;;;;;;;4.23;2.03;;;;;;;18.79;65.31;98834.09;4231172;28;20237;-69
2022/09/14 10:56:25;;;;;;;6.13;2.53;;;;;;;19.03;66.89;98832.97;4211097;28;20291;-68
2022/09/14 10:59:07;;;;;;;6.37;3.73;;;;;;;19.33;68.22;98832.72;4207060;28;20326;-70
2022/09/14 11:02:05;;;;;;;7.70;3.57;;;;;;;19.36;68.47;98828.72;4222464;28;20540;-67
2022/09/14 11:05:06;;;;;;;8.03;3.40;;;;;;;19.43;66.32;98824.00;4224581;28;20236;-68
2022/09/14 11:07:35;;;;;;;8.90;3.60;;;;;;;19.51;66.90;98837.13;4249731;28;20239;-67
2022/09/14 11:10:17;;;;;;;5.70;3.60;;;;;;;19.63;65.93;98831.66;4252861;28;21276;-69
2022/09/14 11:12:50;;;;;;;6.73;2.70;;;;;;;19.48;64.00;98834.06;4231071;28;21338;-68
2022/09/14 11:15:26;;;;;;;7.70;2.97;;;;;;;19.04;66.44;98836.50;4208016;28;20235;-68
2022/09/14 11:18:37;;;;;;;7.83;3.10;;;;;;;18.94;67.14;98835.25;4205777;28;20326;-67
2022/09/14 11:21:14;;;;;;;8.20;2.67;;;;;;;18.95;66.23;98836.88;4259223;28;20231;-67
2022/09/14 11:23:57;;;;;;;6.17;2.70;;;;;;;19.07;65.63;98836.81;4199516;28;20247;-68
2022/09/14 11:26:31;;;;;;;5.70;2.50;;;;;;;18.97;64.36;98839.34;4206931;28;20406;-68
2022/09/14 11:29:04;;;;;;;6.53;2.63;;;;;;;18.70;66.41;98830.91;4197338;28;20322;-68
2022/09/14 11:31:45;;;;;;;11.27;2.90;;;;;;;18.62;66.53;98823.22;4224190;28;20225;-69
2022/09/14 11:34:33;;;;;;;7.27;2.47;;;;;;;18.31;65.05;98822.53;4206555;28;22260;-68